createdAt,value
2018-05-07T00:00:27.028Z,64.53
2018-05-07T00:01:27.123Z,64.82
2018-05-07T00:02:27.068Z,64.92
2018-05-07T00:03:27.039Z,65.20
2018-05-07T00:04:27.109Z,65.01
2018-05-07T00:05:27.043Z,64.82
2018-05-07T00:06:27.053Z,65.01
2018-05-07T00:07:27.056Z,64.92
2018-05-07T00:08:27.048Z,65.59
2018-05-07T00:09:27.064Z,65.30
2018-05-07T00:10:27.058Z,65.68
2018-05-07T00:11:27.071Z,65.68
2018-05-07T00:12:27.090Z,65.78
2018-05-07T00:13:27.072Z,65.97
2018-05-07T00:14:27.099Z,66.26
2018-05-07T00:15:27.087Z,66.42
2018-05-07T00:16:27.244Z,66.13
2018-05-07T00:17:27.094Z,66.89
2018-05-07T00:18:27.123Z,66.89
2018-05-07T00:19:27.101Z,67.18
2018-05-07T00:20:27.107Z,66.89
2018-05-07T00:21:27.106Z,67.18
2018-05-07T00:22:27.137Z,67.09
2018-05-07T00:23:27.119Z,66.99
2018-05-07T00:24:27.128Z,67.66
2018-05-07T00:25:27.120Z,67.18
2018-05-07T00:26:27.131Z,67.66
2018-05-07T00:27:27.128Z,67.18
2018-05-07T00:28:27.140Z,67.18
2018-05-07T00:29:27.143Z,67.47
2018-05-07T00:30:27.141Z,67.66
2018-05-07T00:31:27.149Z,67.38
2018-05-07T00:32:27.149Z,67.57
2018-05-07T00:33:27.160Z,67.76
2018-05-07T00:34:27.163Z,67.76
2018-05-07T00:35:27.181Z,67.63
2018-05-07T00:36:27.166Z,68.05
2018-05-07T00:37:27.173Z,67.76
2018-05-07T00:38:27.173Z,67.95
2018-05-07T00:39:27.184Z,68.24
2018-05-07T00:40:27.178Z,67.76
2018-05-07T00:41:27.189Z,68.05
2018-05-07T00:42:27.191Z,67.76
2018-05-07T00:43:27.199Z,67.76
2018-05-07T00:44:27.194Z,67.85
2018-05-07T00:45:27.198Z,68.52
2018-05-07T00:46:27.207Z,68.33
2018-05-07T00:47:27.208Z,68.68
2018-05-07T00:48:27.219Z,68.68
2018-05-07T00:49:27.213Z,68.87
2018-05-07T00:50:27.274Z,69.17
2018-05-07T00:51:27.223Z,69.17
2018-05-07T00:52:27.230Z,69.17
2018-05-07T00:53:27.231Z,68.87
2018-05-07T00:54:27.241Z,69.17
2018-05-07T00:55:27.254Z,69.17
2018-05-07T00:56:27.256Z,69.35
2018-05-07T00:57:27.241Z,69.17
2018-05-07T00:58:27.255Z,69.74
2018-05-07T00:59:27.253Z,69.83
2018-05-07T01:00:27.264Z,70.21
2018-05-07T01:01:27.274Z,70.31
2018-05-07T01:02:27.266Z,70.41
2018-05-07T01:03:27.270Z,69.93
2018-05-07T01:04:27.272Z,69.64
2018-05-07T01:05:27.281Z,69.83
2018-05-07T01:06:27.283Z,70.21
2018-05-07T01:07:27.290Z,70.31
2018-05-07T01:08:27.296Z,70.21
2018-05-07T01:09:27.288Z,70.03
2018-05-07T01:10:27.301Z,69.93
2018-05-07T01:11:27.308Z,70.21
2018-05-07T01:12:27.311Z,70.60
2018-05-07T01:13:27.308Z,70.56
2018-05-07T01:14:27.308Z,70.66
2018-05-07T01:15:27.319Z,70.47
2018-05-07T01:16:27.319Z,70.56
2018-05-07T01:17:27.329Z,70.70
2018-05-07T01:18:27.328Z,70.56
2018-05-07T01:19:27.339Z,70.56
2018-05-07T01:20:27.331Z,70.56
2018-05-07T01:21:27.338Z,70.47
2018-05-07T01:22:27.340Z,70.47
2018-05-07T01:23:27.341Z,70.37
2018-05-07T01:24:27.354Z,70.37
2018-05-07T01:25:27.354Z,70.66
2018-05-07T01:26:27.364Z,71.04
2018-05-07T01:27:27.358Z,71.04
2018-05-07T01:28:27.365Z,71.33
2018-05-07T01:29:27.366Z,71.04
2018-05-07T01:30:27.373Z,71.04
2018-05-07T01:31:27.374Z,70.76
2018-05-07T01:32:27.383Z,70.95
2018-05-07T01:33:27.380Z,70.95
2018-05-07T01:34:27.388Z,70.95
2018-05-07T01:35:27.412Z,70.76
2018-05-07T01:36:27.396Z,70.95
2018-05-07T01:37:27.389Z,70.95
2018-05-07T01:38:27.403Z,70.37
2018-05-07T01:39:27.399Z,70.18
2018-05-07T01:40:27.407Z,70.37
2018-05-07T01:41:27.408Z,70.47
2018-05-07T01:42:27.410Z,71.23
2018-05-07T01:43:27.423Z,71.04
2018-05-07T01:44:27.987Z,70.56
2018-05-07T01:45:27.418Z,71.33
2018-05-07T01:46:27.426Z,71.04
2018-05-07T01:47:27.433Z,71.04
2018-05-07T01:48:27.440Z,70.76
2018-05-07T01:49:27.433Z,71.04
2018-05-07T01:50:27.440Z,71.04
2018-05-07T01:51:27.450Z,71.04
2018-05-07T01:52:27.451Z,71.91
2018-05-07T01:53:27.451Z,72.19
2018-05-07T01:54:27.455Z,71.81
2018-05-07T01:55:27.468Z,72.00
2018-05-07T01:56:27.466Z,71.14
2018-05-07T01:57:27.470Z,70.95
2018-05-07T01:58:27.476Z,71.52
2018-05-07T01:59:27.469Z,71.91
2018-05-07T02:00:27.480Z,72.16
2018-05-07T02:01:27.481Z,71.71
2018-05-07T02:02:27.487Z,72.19
2018-05-07T02:03:27.494Z,71.87
2018-05-07T02:04:27.487Z,71.68
2018-05-07T02:05:27.493Z,72.25
2018-05-07T02:06:27.496Z,72.25
2018-05-07T02:07:27.507Z,72.06
2018-05-07T02:08:27.509Z,72.34
2018-05-07T02:09:27.505Z,72.16
2018-05-07T02:10:27.510Z,71.68
2018-05-07T02:11:27.518Z,71.87
2018-05-07T02:12:27.517Z,72.34
2018-05-07T02:13:27.527Z,72.44
2018-05-07T02:14:27.521Z,72.63
2018-05-07T02:15:27.534Z,73.02
2018-05-07T02:16:27.538Z,73.11
2018-05-07T02:17:27.531Z,73.40
2018-05-07T02:18:27.543Z,73.11
2018-05-07T02:19:27.538Z,73.30
2018-05-07T02:20:27.546Z,74.16
2018-05-07T02:21:27.556Z,73.97
2018-05-07T02:22:27.560Z,74.26
2018-05-07T02:23:27.557Z,73.79
2018-05-07T02:24:27.578Z,73.59
2018-05-07T02:25:27.566Z,73.79
2018-05-07T02:26:27.567Z,73.84
2018-05-07T02:27:27.589Z,73.40
2018-05-07T02:28:27.576Z,73.40
2018-05-07T02:29:27.578Z,73.50
2018-05-07T02:30:27.583Z,73.59
2018-05-07T02:31:27.667Z,73.50
2018-05-07T02:32:27.584Z,73.55
2018-05-07T02:33:27.597Z,73.75
2018-05-07T02:34:27.590Z,73.65
2018-05-07T02:35:27.601Z,73.75
2018-05-07T02:36:27.605Z,73.36
2018-05-07T02:37:27.604Z,73.75
2018-05-07T02:38:27.609Z,73.94
2018-05-07T02:39:27.616Z,73.55
2018-05-07T02:40:27.618Z,73.75
2018-05-07T02:41:27.613Z,74.32
2018-05-07T02:42:27.626Z,73.84
2018-05-07T02:43:27.632Z,73.84
2018-05-07T02:44:27.631Z,74.22
2018-05-07T02:45:27.629Z,74.61
2018-05-07T02:46:27.631Z,74.51
2018-05-07T02:47:27.634Z,74.51
2018-05-07T02:48:27.650Z,74.61
2018-05-07T02:49:27.649Z,74.61
2018-05-07T02:50:27.652Z,74.51
2018-05-07T02:51:27.646Z,74.70
2018-05-07T02:52:27.665Z,74.41
2018-05-07T02:53:27.668Z,74.80
2018-05-07T02:54:27.664Z,75.09
2018-05-07T02:55:27.665Z,74.90
2018-05-07T02:56:27.670Z,75.14
2018-05-07T02:57:27.670Z,75.43
2018-05-07T02:58:27.675Z,75.34
2018-05-07T02:59:27.682Z,75.43
2018-05-07T03:00:27.686Z,75.34
2018-05-07T03:01:27.680Z,75.24
2018-05-07T03:02:27.687Z,75.14
2018-05-07T03:03:27.695Z,74.95
2018-05-07T03:04:27.690Z,75.34
2018-05-07T03:05:27.699Z,75.34
2018-05-07T03:06:27.701Z,75.24
2018-05-07T03:07:27.701Z,75.24
2018-05-07T03:08:27.702Z,75.14
2018-05-07T03:09:27.711Z,74.85
2018-05-07T03:10:27.712Z,75.43
2018-05-07T03:11:27.722Z,74.85
2018-05-07T03:12:27.722Z,74.85
2018-05-07T03:13:27.715Z,75.24
2018-05-07T03:14:27.721Z,75.24
2018-05-07T03:15:27.729Z,75.14
2018-05-07T03:16:27.737Z,75.05
2018-05-07T03:17:27.744Z,75.24
2018-05-07T03:18:27.743Z,75.34
2018-05-07T03:19:27.744Z,75.14
2018-05-07T03:20:27.757Z,75.14
2018-05-07T03:21:27.745Z,75.05
2018-05-07T03:22:27.753Z,75.14
2018-05-07T03:23:27.774Z,75.24
2018-05-07T03:24:27.752Z,75.05
2018-05-07T03:25:27.778Z,75.24
2018-05-07T03:26:27.769Z,74.95
2018-05-07T03:27:27.764Z,74.85
2018-05-07T03:28:27.770Z,75.24
2018-05-07T03:29:27.772Z,75.14
2018-05-07T03:30:27.778Z,75.34
2018-05-07T03:31:27.778Z,75.14
2018-05-07T03:32:27.784Z,75.34
2018-05-07T03:33:27.779Z,75.05
2018-05-07T03:34:27.790Z,74.95
2018-05-07T03:35:27.783Z,75.14
2018-05-07T03:36:27.790Z,74.95
2018-05-07T03:37:27.795Z,75.24
2018-05-07T03:38:27.808Z,75.14
2018-05-07T03:39:27.805Z,75.24
2018-05-07T03:40:27.866Z,75.14
2018-05-07T03:41:27.811Z,75.24
2018-05-07T03:42:27.805Z,75.34
2018-05-07T03:43:27.815Z,75.81
2018-05-07T03:44:27.817Z,75.91
2018-05-07T03:45:27.830Z,75.14
2018-05-07T03:46:27.830Z,75.24
2018-05-07T03:47:27.825Z,76.10
2018-05-07T03:48:27.840Z,75.81
2018-05-07T03:49:27.844Z,75.43
2018-05-07T03:50:27.836Z,75.81
2018-05-07T03:51:27.845Z,75.91
2018-05-07T03:52:27.855Z,75.91
2018-05-07T03:53:27.840Z,76.00
2018-05-07T03:54:27.848Z,75.81
2018-05-07T03:55:27.857Z,75.62
2018-05-07T03:56:27.859Z,75.91
2018-05-07T03:57:27.856Z,76.00
2018-05-07T03:58:27.861Z,75.81
2018-05-07T03:59:27.868Z,75.91
2018-05-07T04:00:27.861Z,75.43
2018-05-07T04:01:27.870Z,75.62
2018-05-07T04:02:27.865Z,75.91
2018-05-07T04:03:27.871Z,75.71
2018-05-07T04:04:27.881Z,75.81
2018-05-07T04:05:27.874Z,75.43
2018-05-07T04:06:27.891Z,75.62
2018-05-07T04:07:27.885Z,75.43
2018-05-07T04:08:27.900Z,75.52
2018-05-07T04:09:27.893Z,75.43
2018-05-07T04:10:27.914Z,75.52
2018-05-07T04:11:27.896Z,75.62
2018-05-07T04:12:27.902Z,75.62
2018-05-07T04:13:27.901Z,75.62
2018-05-07T04:14:27.908Z,76.20
2018-05-07T04:15:27.920Z,75.91
2018-05-07T04:16:27.920Z,75.91
2018-05-07T04:17:27.940Z,75.34
2018-05-07T04:18:27.927Z,75.14
2018-05-07T04:19:27.923Z,75.91
2018-05-07T04:20:27.931Z,75.34
2018-05-07T04:21:27.931Z,75.43
2018-05-07T04:22:27.928Z,75.62
2018-05-07T04:23:27.959Z,75.24
2018-05-07T04:24:27.935Z,75.14
2018-05-07T04:25:27.943Z,75.34
2018-05-07T04:26:27.941Z,74.95
2018-05-07T04:27:27.948Z,74.95
2018-05-07T04:28:27.946Z,74.95
2018-05-07T04:29:27.955Z,75.05
2018-05-07T04:30:27.964Z,74.48
2018-05-07T04:31:28.523Z,74.48
2018-05-07T04:32:27.963Z,74.66
2018-05-07T04:33:27.961Z,74.48
2018-05-07T04:34:27.963Z,73.80
2018-05-07T04:35:27.976Z,73.80
2018-05-07T04:36:27.975Z,73.71
2018-05-07T04:37:27.974Z,73.71
2018-05-07T04:38:27.979Z,73.90
2018-05-07T04:39:27.985Z,73.71
2018-05-07T04:40:27.997Z,73.43
2018-05-07T04:41:27.993Z,73.61
2018-05-07T04:42:27.987Z,73.71
2018-05-07T04:43:28.003Z,73.52
2018-05-07T04:44:27.998Z,73.04
2018-05-07T04:45:28.004Z,73.04
2018-05-07T04:46:28.005Z,72.85
2018-05-07T04:47:28.013Z,73.17
2018-05-07T04:48:28.012Z,72.60
2018-05-07T04:49:28.015Z,72.56
2018-05-07T04:50:28.022Z,72.79
2018-05-07T04:51:28.531Z,72.50
2018-05-07T04:52:28.019Z,72.79
2018-05-07T04:53:28.029Z,72.12
2018-05-07T04:54:28.027Z,72.12
2018-05-07T04:55:28.037Z,71.83
2018-05-07T04:56:28.034Z,71.64
2018-05-07T04:57:28.040Z,71.64
2018-05-07T04:58:28.038Z,71.45
2018-05-07T04:59:28.047Z,71.45
2018-05-07T05:00:28.058Z,70.97
2018-05-07T05:01:28.056Z,70.87
2018-05-07T05:02:28.068Z,71.07
2018-05-07T05:03:28.051Z,70.50
2018-05-07T05:04:28.056Z,70.59
2018-05-07T05:05:28.066Z,70.40
2018-05-07T05:06:28.064Z,70.11
2018-05-07T05:07:28.071Z,69.92
2018-05-07T05:08:28.074Z,69.73
2018-05-07T05:09:28.079Z,69.82
2018-05-07T05:10:28.076Z,70.11
2018-05-07T05:11:28.085Z,69.57
2018-05-07T05:12:28.159Z,69.73
2018-05-07T05:13:28.096Z,69.95
2018-05-07T05:14:28.090Z,69.00
2018-05-07T05:15:28.101Z,68.90
2018-05-07T05:16:28.145Z,68.90
2018-05-07T05:17:28.101Z,69.00
2018-05-07T05:18:28.108Z,69.09
2018-05-07T05:19:28.113Z,69.00
2018-05-07T05:20:28.115Z,68.42
2018-05-07T05:21:28.147Z,68.33
2018-05-07T05:22:28.123Z,68.23
2018-05-07T05:23:28.118Z,68.52
2018-05-07T05:24:28.132Z,67.94
2018-05-07T05:25:28.131Z,68.42
2018-05-07T05:26:28.132Z,67.85
2018-05-07T05:27:28.139Z,67.66
2018-05-07T05:28:28.143Z,67.37
2018-05-07T05:29:28.145Z,67.47
2018-05-07T05:30:28.158Z,67.60
2018-05-07T05:31:28.143Z,66.83
2018-05-07T05:32:28.149Z,64.59
2018-05-07T05:33:28.156Z,61.36
2018-05-07T05:34:28.162Z,56.74
2018-05-07T05:35:28.157Z,53.62
2018-05-07T05:36:28.163Z,51.56
2018-05-07T05:37:28.171Z,49.37
2018-05-07T05:38:28.169Z,47.55
2018-05-07T05:39:28.191Z,46.23
2018-05-07T05:40:28.183Z,45.94
2018-05-07T05:41:28.192Z,44.42
2018-05-07T05:42:28.200Z,43.66
2018-05-07T05:43:28.304Z,43.66
2018-05-07T05:44:28.212Z,42.52
2018-05-07T05:45:28.220Z,41.70
2018-05-07T05:46:28.225Z,40.17
2018-05-07T05:47:28.241Z,39.22
2018-05-07T05:48:28.240Z,39.53
2018-05-07T05:49:28.250Z,38.07
2018-05-07T05:50:28.260Z,37.34
2018-05-07T05:51:28.265Z,36.58
2018-05-07T05:52:28.275Z,35.61
2018-05-07T05:53:28.285Z,35.51
2018-05-07T05:54:28.296Z,35.61
2018-05-07T05:55:28.323Z,34.58
2018-05-07T05:56:28.392Z,34.50
2018-05-07T05:57:28.331Z,34.17
2018-05-07T05:58:28.344Z,34.74
2018-05-07T05:59:28.359Z,34.44
2018-05-07T06:00:28.368Z,34.46
2018-05-07T06:01:28.420Z,34.61
2018-05-07T06:02:28.391Z,35.85
2018-05-07T06:03:28.413Z,36.90
2018-05-07T06:04:28.426Z,36.93
2018-05-07T06:05:28.425Z,35.98
2018-05-07T06:06:28.443Z,35.30
2018-05-07T06:07:28.456Z,35.32
2018-05-07T06:08:28.470Z,34.83
2018-05-07T06:09:28.492Z,34.33
2018-05-07T06:10:28.492Z,34.83
2018-05-07T06:11:28.519Z,34.46
2018-05-07T06:12:28.557Z,33.41
2018-05-07T06:13:28.541Z,33.51
2018-05-07T06:14:28.611Z,32.84
2018-05-07T06:15:28.578Z,32.65
2018-05-07T06:16:28.590Z,32.67
2018-05-07T06:17:29.569Z,31.82
2018-05-07T06:18:28.604Z,30.77
2018-05-07T06:19:28.636Z,30.28
2018-05-07T06:20:28.649Z,29.99
2018-05-07T06:21:28.660Z,29.96
2018-05-07T06:22:28.688Z,30.74
2018-05-07T06:23:28.692Z,30.55
2018-05-07T06:24:28.703Z,30.28
2018-05-07T06:25:28.708Z,29.72
2018-05-07T06:26:28.738Z,29.04
2018-05-07T06:27:28.746Z,28.77
2018-05-07T06:28:28.788Z,28.29
2018-05-07T06:29:28.800Z,28.36
2018-05-07T06:30:28.798Z,28.65
2018-05-07T06:31:28.814Z,28.55
2018-05-07T06:32:28.823Z,28.72
2018-05-07T06:33:28.849Z,29.21
2018-05-07T06:34:28.955Z,29.30
2018-05-07T06:35:28.892Z,29.68
2018-05-07T06:36:28.889Z,29.50
2018-05-07T06:37:28.918Z,28.55
2018-05-07T06:38:28.927Z,27.22
2018-05-07T06:39:28.958Z,26.92
2018-05-07T06:40:28.976Z,26.45
2018-05-07T06:41:28.978Z,26.18
2018-05-07T06:42:28.987Z,25.02
2018-05-07T06:43:29.019Z,24.82
2018-05-07T06:44:29.033Z,25.86
2018-05-07T06:45:29.042Z,26.35
2018-05-07T06:46:29.064Z,26.14
2018-05-07T06:47:29.110Z,26.53
2018-05-07T06:48:29.094Z,26.63
2018-05-07T06:49:29.126Z,26.64
2018-05-07T06:50:29.134Z,26.27
2018-05-07T06:51:29.181Z,25.12
2018-05-07T06:52:29.163Z,24.64
2018-05-07T06:53:29.195Z,23.77
2018-05-07T06:54:29.243Z,23.79
2018-05-07T06:55:29.226Z,24.25
2018-05-07T06:56:29.248Z,24.35
2018-05-07T06:57:29.265Z,24.07
2018-05-07T06:58:29.291Z,24.43
2018-05-07T06:59:29.305Z,24.81
2018-05-07T07:00:29.319Z,24.73
2018-05-07T07:01:29.328Z,24.71
2018-05-07T07:02:29.831Z,25.39
2018-05-07T07:03:29.368Z,25.21
2018-05-07T07:04:29.401Z,25.27
2018-05-07T07:05:29.410Z,25.76
2018-05-07T07:06:29.421Z,25.98
2018-05-07T07:07:29.498Z,26.35
2018-05-07T07:08:29.621Z,26.37
2018-05-07T07:09:29.494Z,25.79
2018-05-07T07:10:29.499Z,24.71
2018-05-07T07:11:29.521Z,24.71
2018-05-07T07:12:29.536Z,24.81
2018-05-07T07:13:29.555Z,24.90
2018-05-07T07:14:29.573Z,25.57
2018-05-07T07:15:29.608Z,25.96
2018-05-07T07:16:29.657Z,25.49
2018-05-07T07:17:29.637Z,25.49
2018-05-07T07:18:29.657Z,25.49
2018-05-07T07:19:29.682Z,25.76
2018-05-07T07:20:29.689Z,25.98
2018-05-07T07:21:29.717Z,25.31
2018-05-07T07:22:29.726Z,24.73
2018-05-07T07:23:29.757Z,24.64
2018-05-07T07:24:29.775Z,24.07
2018-05-07T07:25:29.789Z,23.57
2018-05-07T07:26:29.806Z,23.77
2018-05-07T07:27:29.834Z,23.97
2018-05-07T07:28:29.852Z,23.49
2018-05-07T07:29:29.864Z,23.38
2018-05-07T07:30:29.888Z,23.96
2018-05-07T07:31:29.904Z,24.05
2018-05-07T07:32:29.924Z,23.96
2018-05-07T07:33:29.952Z,23.96
2018-05-07T07:34:29.969Z,23.86
2018-05-07T07:35:30.005Z,24.79
2018-05-07T07:36:30.008Z,25.39
2018-05-07T07:37:30.029Z,25.02
2018-05-07T07:38:30.050Z,24.62
2018-05-07T07:39:30.134Z,24.54
2018-05-07T07:40:30.104Z,24.33
2018-05-07T07:41:30.108Z,24.90
2018-05-07T07:42:30.135Z,25.08
2018-05-07T07:43:30.148Z,24.80
2018-05-07T07:44:30.168Z,25.20
2018-05-07T07:45:30.191Z,24.91
2018-05-07T07:46:30.208Z,24.54
2018-05-07T07:47:30.241Z,23.20
2018-05-07T07:48:30.252Z,22.73
2018-05-07T07:49:30.264Z,22.81
2018-05-07T07:50:30.329Z,23.02
2018-05-07T07:51:30.314Z,23.77
2018-05-07T07:52:30.408Z,23.59
2018-05-07T07:53:30.393Z,23.21
2018-05-07T07:54:30.365Z,23.02
2018-05-07T07:55:30.391Z,22.72
2018-05-07T07:56:30.412Z,22.23
2018-05-07T07:57:30.433Z,22.52
2018-05-07T07:58:30.479Z,22.89
2018-05-07T07:59:30.477Z,23.39
2018-05-07T08:00:30.499Z,23.00
2018-05-07T08:01:30.511Z,23.68
2018-05-07T08:02:30.535Z,23.09
2018-05-07T08:03:30.555Z,23.37
2018-05-07T08:04:30.577Z,22.60
2018-05-07T08:05:30.597Z,22.42
2018-05-07T08:06:30.629Z,21.66
2018-05-07T08:07:30.635Z,22.33
2018-05-07T08:08:30.663Z,22.61
2018-05-07T08:09:30.675Z,23.09
2018-05-07T08:10:30.712Z,24.04
2018-05-07T08:11:30.724Z,24.32
2018-05-07T08:12:30.746Z,24.14
2018-05-07T08:13:30.758Z,23.75
2018-05-07T08:14:30.780Z,24.05
2018-05-07T08:15:30.810Z,24.07
2018-05-07T08:16:30.826Z,23.58
2018-05-07T08:17:31.702Z,22.81
2018-05-07T08:18:30.992Z,22.24
2018-05-07T08:19:30.884Z,22.12
2018-05-07T08:20:30.919Z,22.42
2018-05-07T08:21:30.921Z,22.31
2018-05-07T08:22:30.947Z,22.51
2018-05-07T08:23:30.969Z,22.34
2018-05-07T08:24:30.992Z,22.13
2018-05-07T08:25:31.012Z,21.56
2018-05-07T08:26:31.092Z,21.67
2018-05-07T08:27:31.058Z,21.09
2018-05-07T08:28:31.074Z,21.29
2018-05-07T08:29:31.090Z,21.39
2018-05-07T08:30:31.162Z,20.72
2018-05-07T08:31:31.139Z,20.69
2018-05-07T08:32:31.164Z,21.35
2018-05-07T08:33:31.194Z,22.33
2018-05-07T08:34:31.196Z,21.45
2018-05-07T08:35:31.231Z,21.27
2018-05-07T08:36:31.299Z,20.70
2018-05-07T08:37:31.265Z,20.97
2018-05-07T08:38:31.294Z,21.56
2018-05-07T08:39:31.313Z,21.67
2018-05-07T08:40:31.446Z,21.00
2018-05-07T08:41:31.363Z,20.59
2018-05-07T08:42:31.467Z,20.97
2018-05-07T08:43:31.385Z,21.45
2018-05-07T08:44:31.408Z,21.55
2018-05-07T08:45:31.437Z,22.86
2018-05-07T08:46:31.450Z,23.27
2018-05-07T08:47:31.597Z,22.89
2018-05-07T08:48:31.492Z,22.89
2018-05-07T08:49:31.517Z,22.89
2018-05-07T08:50:31.542Z,22.69
2018-05-07T08:51:31.559Z,23.18
2018-05-07T08:52:31.582Z,22.81
2018-05-07T08:53:32.566Z,22.61
2018-05-07T08:54:31.623Z,22.80
2018-05-07T08:55:31.662Z,23.57
2018-05-07T08:56:31.696Z,23.47
2018-05-07T08:57:31.687Z,24.04
2018-05-07T08:58:31.710Z,24.42
2018-05-07T08:59:31.730Z,24.33
2018-05-07T09:00:31.747Z,23.66
2018-05-07T09:01:31.778Z,23.47
2018-05-07T09:02:31.796Z,23.93
2018-05-07T09:03:31.813Z,24.51
2018-05-07T09:04:32.666Z,24.71
2018-05-07T09:05:31.853Z,24.89
2018-05-07T09:06:31.874Z,25.08
2018-05-07T09:07:31.901Z,25.46
2018-05-07T09:08:31.913Z,25.85
2018-05-07T09:09:31.937Z,24.99
2018-05-07T09:10:31.956Z,24.99
2018-05-07T09:11:31.971Z,24.52
2018-05-07T09:12:32.002Z,23.75
2018-05-07T09:13:32.047Z,23.00
2018-05-07T09:14:32.036Z,22.44
2018-05-07T09:15:32.054Z,22.23
2018-05-07T09:16:32.087Z,22.31
2018-05-07T09:17:32.091Z,23.86
2018-05-07T09:18:32.126Z,23.38
2018-05-07T09:19:32.135Z,23.10
2018-05-07T09:20:32.292Z,22.89
2018-05-07T09:21:32.191Z,23.09
2018-05-07T09:22:32.201Z,23.28
2018-05-07T09:23:32.220Z,22.61
2018-05-07T09:24:32.249Z,22.23
2018-05-07T09:25:32.315Z,22.42
2018-05-07T09:26:32.287Z,22.23
2018-05-07T09:27:32.347Z,23.07
2018-05-07T09:28:32.343Z,23.55
2018-05-07T09:29:32.356Z,23.75
2018-05-07T09:30:32.359Z,22.97
2018-05-07T09:31:32.453Z,23.55
2018-05-07T09:32:32.400Z,23.44
2018-05-07T09:33:32.437Z,23.54
2018-05-07T09:34:32.451Z,23.82
2018-05-07T09:35:32.489Z,24.58
2018-05-07T09:36:32.495Z,24.40
2018-05-07T09:37:32.510Z,24.60
2018-05-07T09:38:32.544Z,24.50
2018-05-07T09:39:32.546Z,24.69
2018-05-07T09:40:32.566Z,24.02
2018-05-07T09:41:32.594Z,23.83
2018-05-07T09:42:32.631Z,23.74
2018-05-07T09:43:32.632Z,22.87
2018-05-07T09:44:32.655Z,22.17
2018-05-07T09:45:32.676Z,22.66
2018-05-07T09:46:32.694Z,21.59
2018-05-07T09:47:32.712Z,21.61
2018-05-07T09:48:32.745Z,20.64
2018-05-07T09:49:32.761Z,21.33
2018-05-07T09:50:32.790Z,21.63
2018-05-07T09:51:32.796Z,21.24
2018-05-07T09:52:32.819Z,20.95
2018-05-07T09:53:32.834Z,20.83
2018-05-07T09:54:32.861Z,21.70
2018-05-07T09:55:32.898Z,20.62
2018-05-07T09:56:32.924Z,21.12
2018-05-07T09:57:32.932Z,21.12
2018-05-07T09:58:32.951Z,21.03
2018-05-07T09:59:32.969Z,21.04
2018-05-07T10:00:32.987Z,21.42
2018-05-07T10:01:33.005Z,21.70
2018-05-07T10:02:33.099Z,22.27
2018-05-07T10:03:33.048Z,22.27
2018-05-07T10:04:33.072Z,22.17
2018-05-07T10:05:33.079Z,22.66
2018-05-07T10:06:33.106Z,22.85
2018-05-07T10:07:33.122Z,23.03
2018-05-07T10:08:33.142Z,22.94
2018-05-07T10:09:33.165Z,23.62
2018-05-07T10:10:33.189Z,22.84
2018-05-07T10:11:33.206Z,22.84
2018-05-07T10:12:33.252Z,22.84
2018-05-07T10:13:33.252Z,22.44
2018-05-07T10:14:33.277Z,23.11
2018-05-07T10:15:33.285Z,23.50
2018-05-07T10:16:33.330Z,23.61
2018-05-07T10:17:33.339Z,23.80
2018-05-07T10:18:33.360Z,23.52
2018-05-07T10:19:33.404Z,22.64
2018-05-07T10:20:33.429Z,22.95
2018-05-07T10:21:33.427Z,22.27
2018-05-07T10:22:33.445Z,22.08
2018-05-07T10:23:33.513Z,22.47
2018-05-07T10:24:33.481Z,23.14
2018-05-07T10:25:33.494Z,23.43
2018-05-07T10:26:33.514Z,22.94
2018-05-07T10:27:33.533Z,23.54
2018-05-07T10:28:33.556Z,23.23
2018-05-07T10:29:33.581Z,23.23
2018-05-07T10:30:33.595Z,23.54
2018-05-07T10:31:33.610Z,23.24
2018-05-07T10:32:33.634Z,23.03
2018-05-07T10:33:33.648Z,22.80
2018-05-07T10:34:33.677Z,23.00
2018-05-07T10:35:33.700Z,23.40
2018-05-07T10:36:33.724Z,23.79
2018-05-07T10:37:33.730Z,23.89
2018-05-07T10:38:33.754Z,23.10
2018-05-07T10:39:33.769Z,23.00
2018-05-07T10:40:33.791Z,23.30
2018-05-07T10:41:33.811Z,23.78
2018-05-07T10:42:33.827Z,24.45
2018-05-07T10:43:33.852Z,23.96
2018-05-07T10:44:33.877Z,23.38
2018-05-07T10:45:34.017Z,23.86
2018-05-07T10:46:33.909Z,23.88
2018-05-07T10:47:33.923Z,23.80
2018-05-07T10:48:33.937Z,23.82
2018-05-07T10:49:33.960Z,23.34
2018-05-07T10:50:33.978Z,22.96
2018-05-07T10:51:34.000Z,22.46
2018-05-07T10:52:34.030Z,22.63
2018-05-07T10:53:34.041Z,23.00
2018-05-07T10:54:34.049Z,23.19
2018-05-07T10:55:34.071Z,23.88
2018-05-07T10:56:34.092Z,23.86
2018-05-07T10:57:34.105Z,24.06
2018-05-07T10:58:34.126Z,24.35
2018-05-07T10:59:34.143Z,24.94
2018-05-07T11:00:34.160Z,25.63
2018-05-07T11:01:34.235Z,25.03
2018-05-07T11:02:34.197Z,25.62
2018-05-07T11:03:34.227Z,25.32
2018-05-07T11:04:34.239Z,24.94
2018-05-07T11:05:34.256Z,24.93
2018-05-07T11:06:34.273Z,24.65
2018-05-07T11:07:34.293Z,24.93
2018-05-07T11:08:34.317Z,24.93
2018-05-07T11:09:34.328Z,25.12
2018-05-07T11:10:34.358Z,25.70
2018-05-07T11:11:34.365Z,25.40
2018-05-07T11:12:34.383Z,25.79
2018-05-07T11:13:34.412Z,25.70
2018-05-07T11:14:34.414Z,25.02
2018-05-07T11:15:34.441Z,25.13
2018-05-07T11:16:34.452Z,25.60
2018-05-07T11:17:34.477Z,25.13
2018-05-07T11:18:34.492Z,25.70
2018-05-07T11:19:34.503Z,26.01
2018-05-07T11:20:34.529Z,26.39
2018-05-07T11:21:34.542Z,25.99
2018-05-07T11:22:34.557Z,26.39
2018-05-07T11:23:34.642Z,26.19
2018-05-07T11:24:34.595Z,25.81
2018-05-07T11:25:34.615Z,25.34
2018-05-07T11:26:34.623Z,25.24
2018-05-07T11:27:34.645Z,25.53
2018-05-07T11:28:34.682Z,25.42
2018-05-07T11:29:34.701Z,25.70
2018-05-07T11:30:34.713Z,25.60
2018-05-07T11:31:34.729Z,25.49
2018-05-07T11:32:34.725Z,25.68
2018-05-07T11:33:34.750Z,25.86
2018-05-07T11:34:34.768Z,25.95
2018-05-07T11:35:34.783Z,26.43
2018-05-07T11:36:34.916Z,26.43
2018-05-07T11:37:34.823Z,26.72
2018-05-07T11:38:34.846Z,26.73
2018-05-07T11:39:34.864Z,26.44
2018-05-07T11:40:34.870Z,26.25
2018-05-07T11:41:34.880Z,26.15
2018-05-07T11:42:34.891Z,26.15
2018-05-07T11:43:34.916Z,27.21
2018-05-07T11:44:34.919Z,27.31
2018-05-07T11:45:34.942Z,27.50
2018-05-07T11:46:35.122Z,27.50
2018-05-07T11:47:35.007Z,27.40
2018-05-07T11:48:34.992Z,27.40
2018-05-07T11:49:34.993Z,28.08
2018-05-07T11:50:35.024Z,28.45
2018-05-07T11:51:35.032Z,27.97
2018-05-07T11:52:35.059Z,28.55
2018-05-07T11:53:35.073Z,29.22
2018-05-07T11:54:35.071Z,30.08
2018-05-07T11:55:35.096Z,29.98
2018-05-07T11:56:35.105Z,29.60
2018-05-07T11:57:35.114Z,30.08
2018-05-07T11:58:35.126Z,29.60
2018-05-07T11:59:35.155Z,29.51
2018-05-07T12:00:35.170Z,29.61
2018-05-07T12:01:35.175Z,29.71
2018-05-07T12:02:35.198Z,28.64
2018-05-07T12:03:35.202Z,29.32
2018-05-07T12:04:35.220Z,28.72
2018-05-07T12:05:35.221Z,28.81
2018-05-07T12:06:35.247Z,29.21
2018-05-07T12:07:35.261Z,29.30
2018-05-07T12:08:35.278Z,29.02
2018-05-07T12:09:35.283Z,29.21
2018-05-07T12:10:35.297Z,28.83
2018-05-07T12:11:35.307Z,28.44
2018-05-07T12:12:35.315Z,28.53
2018-05-07T12:13:35.329Z,29.11
2018-05-07T12:14:35.341Z,29.97
2018-05-07T12:15:35.345Z,30.35
2018-05-07T12:16:35.366Z,31.04
2018-05-07T12:17:35.377Z,31.21
2018-05-07T12:18:35.394Z,31.31
2018-05-07T12:19:35.395Z,31.31
2018-05-07T12:20:35.497Z,30.35
2018-05-07T12:21:35.703Z,30.35
2018-05-07T12:22:35.435Z,30.55
2018-05-07T12:23:35.721Z,31.05
2018-05-07T12:24:35.605Z,31.04
2018-05-07T12:25:35.467Z,30.85
2018-05-07T12:26:35.485Z,30.94
2018-05-07T12:27:35.506Z,31.52
2018-05-07T12:28:35.510Z,31.32
2018-05-07T12:29:35.544Z,31.23
2018-05-07T12:30:35.532Z,31.32
2018-05-07T12:31:35.730Z,31.52
2018-05-07T12:32:35.604Z,30.76
2018-05-07T12:33:35.573Z,29.68
2018-05-07T12:34:35.569Z,29.58
2018-05-07T12:35:35.575Z,29.97
2018-05-07T12:36:35.590Z,29.58
2018-05-07T12:37:35.680Z,29.58
2018-05-07T12:38:35.621Z,30.05
2018-05-07T12:39:35.628Z,29.47
2018-05-07T12:40:35.656Z,29.95
2018-05-07T12:41:35.641Z,29.76
2018-05-07T12:42:35.649Z,30.15
2018-05-07T12:43:35.663Z,29.76
2018-05-07T12:44:35.675Z,30.54
2018-05-07T12:45:35.688Z,30.63
2018-05-07T12:46:35.694Z,30.63
2018-05-07T12:47:35.707Z,30.92
2018-05-07T12:48:35.749Z,30.73
2018-05-07T12:49:35.737Z,30.45
2018-05-07T12:50:35.738Z,30.16
2018-05-07T12:51:35.744Z,30.45
2018-05-07T12:52:35.782Z,30.37